Time;durP1;ratioP1;P1;durP2;ratioP2;P2;SDS_P1;SDS_P2;PMS_P1;PMS_P2;Temp;Humidity;BMP_temperature;BMP_pressure;BME280_temperature;BME280_humidity;BME280_pressure;Samples;Min_cycle;Max_cycle;Signal;HPM_P1;HPM_P2
2022/11/24 00:00:50;;;;;;;13.32;8.70;;;4.90;83.70;;;;;;5033534;28;20026;-58
2022/11/24 00:03:16;;;;;;;12.70;8.68;;;4.90;83.60;;;;;;5033018;28;20048;-58
2022/11/24 00:05:42;;;;;;;13.88;8.80;;;4.90;83.60;;;;;;5047875;28;20025;-58
2022/11/24 00:08:08;;;;;;;13.38;8.68;;;4.90;83.80;;;;;;5040560;28;20036;-58
2022/11/24 00:10:34;;;;;;;12.30;7.93;;;4.90;83.80;;;;;;5037982;28;20021;-58
2022/11/24 00:13:00;;;;;;;13.95;8.63;;;4.90;83.80;;;;;;5034234;28;20029;-57
2022/11/24 00:15:25;;;;;;;15.13;10.13;;;4.90;83.90;;;;;;5040498;28;20418;-58
2022/11/24 00:17:51;;;;;;;11.82;7.95;;;4.90;83.80;;;;;;5045770;28;20041;-58
2022/11/24 00:20:16;;;;;;;11.10;7.88;;;4.90;83.80;;;;;;5040013;28;20032;-58
2022/11/24 00:22:42;;;;;;;13.88;9.77;;;4.90;83.90;;;;;;5042334;28;20036;-58
2022/11/24 00:25:08;;;;;;;16.98;10.45;;;4.90;83.90;;;;;;5037358;28;20507;-57
2022/11/24 00:27:33;;;;;;;15.48;8.93;;;4.90;83.70;;;;;;5046974;28;20037;-58
2022/11/24 00:29:59;;;;;;;11.95;8.48;;;4.90;83.80;;;;;;5045581;28;20506;-58
2022/11/24 00:32:28;;;;;;;14.73;9.77;;;4.90;83.90;;;;;;5023135;28;20033;-58
2022/11/24 00:34:54;;;;;;;12.55;8.68;;;4.90;83.70;;;;;;5022743;28;20040;-58
2022/11/24 00:37:19;;;;;;;17.30;10.55;;;4.90;83.70;;;;;;5039732;28;20034;-58
2022/11/24 00:39:45;;;;;;;15.70;9.48;;;4.90;83.60;;;;;;5051165;28;20415;-58
2022/11/24 00:42:11;;;;;;;12.27;8.70;;;4.90;83.40;;;;;;5042685;28;20041;-58
2022/11/24 00:44:36;;;;;;;13.75;9.00;;;4.80;83.50;;;;;;5037270;28;20021;-57
2022/11/24 00:47:02;;;;;;;12.60;8.82;;;4.80;83.60;;;;;;5048057;28;20112;-59
2022/11/24 00:49:27;;;;;;;12.60;8.40;;;4.80;83.60;;;;;;5048832;28;20029;-58
2022/11/24 00:51:53;;;;;;;13.02;8.32;;;4.80;83.80;;;;;;5017802;28;20448;-58
2022/11/24 00:54:19;;;;;;;13.20;8.63;;;4.80;84.00;;;;;;5023171;28;20449;-58
2022/11/24 00:56:44;;;;;;;13.00;8.40;;;4.80;84.00;;;;;;5044955;28;20056;-57
2022/11/24 00:59:10;;;;;;;14.25;9.10;;;4.80;84.00;;;;;;5047726;28;20035;-58
2022/11/24 01:01:36;;;;;;;12.18;8.30;;;4.80;83.90;;;;;;5031202;28;20053;-58
2022/11/24 01:04:02;;;;;;;12.80;8.55;;;4.80;83.70;;;;;;5032300;28;20036;-57
2022/11/24 01:06:31;;;;;;;11.93;8.30;;;4.80;83.60;;;;;;5033537;28;20036;-58
2022/11/24 01:08:57;;;;;;;16.33;10.05;;;4.70;83.60;;;;;;5037446;28;20034;-58
2022/11/24 01:11:26;;;;;;;11.85;7.97;;;4.70;83.80;;;;;;5040049;28;20030;-58
2022/11/24 01:13:56;;;;;;;15.55;10.02;;;4.70;84.00;;;;;;5034546;28;20078;-58
2022/11/24 01:16:30;;;;;;;16.95;10.70;;;4.70;84.00;;;;;;5033500;28;20120;-58
2022/11/24 01:18:56;;;;;;;14.65;10.02;;;4.70;83.90;;;;;;5034392;28;20040;-58
2022/11/24 01:21:23;;;;;;;13.48;10.02;;;4.70;84.10;;;;;;5033292;28;20400;-58
2022/11/24 01:23:49;;;;;;;13.88;9.35;;;4.70;84.20;;;;;;5024056;28;20033;-58
2022/11/24 01:26:18;;;;;;;13.57;9.30;;;4.70;84.30;;;;;;5046658;28;20033;-58
2022/11/24 01:28:44;;;;;;;14.52;9.55;;;4.70;84.40;;;;;;5025140;28;20022;-58
2022/11/24 01:31:10;;;;;;;16.85;10.57;;;4.70;84.30;;;;;;5031308;28;20036;-57
2022/11/24 01:33:37;;;;;;;17.73;10.15;;;4.70;84.30;;;;;;5039282;28;20619;-56
2022/11/24 01:36:04;;;;;;;15.82;10.40;;;4.60;84.40;;;;;;5047867;28;20053;-57
2022/11/24 01:38:30;;;;;;;16.33;10.35;;;4.70;84.50;;;;;;5037099;28;20033;-58
2022/11/24 01:41:00;;;;;;;16.95;10.80;;;4.60;84.50;;;;;;5043018;28;20383;-58
2022/11/24 01:43:26;;;;;;;13.23;8.65;;;4.60;84.40;;;;;;5043813;28;20463;-58
2022/11/24 01:45:53;;;;;;;12.88;9.20;;;4.60;84.50;;;;;;5024032;28;20100;-57
2022/11/24 01:48:33;;;;;;;16.75;9.88;;;4.60;84.60;;;;;;5032405;28;20472;-58
2022/11/24 01:51:22;;;;;;;14.23;9.65;;;4.60;84.60;;;;;;5041873;28;20035;-56
2022/11/24 01:53:54;;;;;;;16.25;10.70;;;4.60;84.70;;;;;;5031216;28;20452;-58
2022/11/24 01:56:20;;;;;;;14.50;9.43;;;4.60;84.80;;;;;;5040289;28;20037;-58
2022/11/24 01:58:47;;;;;;;16.23;10.38;;;4.60;84.50;;;;;;5030833;28;20103;-58
2022/11/24 02:01:13;;;;;;;15.93;10.05;;;4.50;84.60;;;;;;5019258;28;20495;-58
2022/11/24 02:03:42;;;;;;;13.60;9.27;;;4.50;85.00;;;;;;5038155;28;20017;-58
2022/11/24 02:06:15;;;;;;;15.23;9.75;;;4.50;85.10;;;;;;5039994;28;20025;-58
2022/11/24 02:08:52;;;;;;;13.50;9.18;;;4.50;85.20;;;;;;5049476;28;20448;-58
2022/11/24 02:11:20;;;;;;;12.20;9.05;;;4.50;85.30;;;;;;5035327;28;20030;-58
2022/11/24 02:13:48;;;;;;;13.45;9.65;;;4.50;85.30;;;;;;5027104;28;20029;-58
2022/11/24 02:16:14;;;;;;;15.65;10.23;;;4.50;85.30;;;;;;5029961;28;20029;-58
2022/11/24 02:18:41;;;;;;;13.02;9.07;;;4.50;85.30;;;;;;5040164;28;20079;-57
2022/11/24 02:21:09;;;;;;;13.73;8.77;;;4.50;85.30;;;;;;5043833;28;20021;-57
2022/11/24 02:23:47;;;;;;;17.08;10.27;;;4.50;85.40;;;;;;5026327;28;20028;-58
2022/11/24 02:26:45;;;;;;;18.05;11.00;;;4.50;85.50;;;;;;5044583;28;20040;-58
2022/11/24 02:29:13;;;;;;;14.65;9.38;;;4.40;85.40;;;;;;5021252;28;20084;-58
2022/11/24 02:31:50;;;;;;;14.23;9.18;;;4.40;85.60;;;;;;5043241;28;20017;-58
2022/11/24 02:34:16;;;;;;;13.82;9.75;;;4.40;85.70;;;;;;5041592;28;20025;-57
2022/11/24 02:36:41;;;;;;;16.02;10.45;;;4.30;85.90;;;;;;5029641;28;20092;-58
2022/11/24 02:39:11;;;;;;;14.77;9.65;;;4.30;86.10;;;;;;5032050;28;20117;-58
2022/11/24 02:41:43;;;;;;;17.02;11.18;;;4.30;86.30;;;;;;5043375;28;20423;-58
2022/11/24 02:44:10;;;;;;;;;;;4.20;86.50;;;;;;5026934;28;20088;-58
2022/11/24 02:46:35;;;;;;;15.88;10.30;;;4.20;86.70;;;;;;5039656;28;19905;-58
2022/11/24 02:49:01;;;;;;;16.42;10.32;;;4.10;86.70;;;;;;5024240;28;20099;-59
2022/11/24 02:51:28;;;;;;;14.73;9.80;;;4.10;87.00;;;;;;5041713;28;20383;-58
2022/11/24 02:53:53;;;;;;;15.00;9.77;;;4.10;87.20;;;;;;5037886;28;20044;-57
2022/11/24 02:56:19;;;;;;;14.90;10.23;;;4.10;87.20;;;;;;5035820;28;20497;-58
2022/11/24 02:58:45;;;;;;;16.58;10.23;;;4.10;87.70;;;;;;5029410;28;20033;-56
2022/11/24 03:01:10;;;;;;;14.40;9.63;;;4.10;87.80;;;;;;5035124;28;20030;-58
2022/11/24 03:03:36;;;;;;;14.75;10.55;;;4.00;88.00;;;;;;5028285;28;20036;-57
2022/11/24 03:06:02;;;;;;;16.35;11.00;;;4.00;88.20;;;;;;5029566;28;20094;-58
2022/11/24 03:08:27;;;;;;;17.65;10.93;;;4.10;88.40;;;;;;5045335;28;20021;-58
2022/11/24 03:10:53;;;;;;;16.15;9.43;;;4.00;88.60;;;;;;5048238;28;20100;-58
2022/11/24 03:13:19;;;;;;;15.80;10.18;;;4.00;88.70;;;;;;5043567;28;20021;-58
2022/11/24 03:15:45;;;;;;;15.18;9.60;;;4.10;89.00;;;;;;5036867;28;20029;-58
2022/11/24 03:18:10;;;;;;;14.10;9.68;;;4.10;89.20;;;;;;5038110;28;20428;-58
2022/11/24 03:20:36;;;;;;;15.90;9.68;;;4.10;89.20;;;;;;5026847;28;20393;-58
2022/11/24 03:23:01;;;;;;;16.08;10.40;;;4.10;89.20;;;;;;5030209;28;20021;-57
2022/11/24 03:25:27;;;;;;;15.27;10.02;;;4.20;89.40;;;;;;5044415;28;20032;-58
2022/11/24 03:27:56;;;;;;;14.98;9.90;;;4.20;89.30;;;;;;5046563;28;20041;-58
2022/11/24 03:30:21;;;;;;;15.63;9.95;;;4.20;89.60;;;;;;5040202;28;20381;-58
2022/11/24 03:32:49;;;;;;;14.35;10.15;;;4.20;89.60;;;;;;5028547;28;20037;-58
2022/11/24 03:35:15;;;;;;;16.42;10.35;;;4.20;89.60;;;;;;5041780;28;20427;-58
2022/11/24 03:37:41;;;;;;;15.95;9.00;;;4.10;89.70;;;;;;5045026;28;20086;-58
2022/11/24 03:40:07;;;;;;;17.58;10.38;;;4.10;89.80;;;;;;5034830;28;20108;-58
2022/11/24 03:42:32;;;;;;;17.65;9.60;;;4.10;90.00;;;;;;5040061;28;20389;-57
2022/11/24 03:44:58;;;;;;;16.13;10.38;;;4.10;90.10;;;;;;5047213;28;20095;-58
2022/11/24 03:47:23;;;;;;;16.02;10.55;;;4.10;90.20;;;;;;5049880;28;20025;-58
2022/11/24 03:49:49;;;;;;;16.42;10.45;;;4.10;90.30;;;;;;5027620;28;20033;-58
2022/11/24 03:52:15;;;;;;;17.95;10.65;;;4.10;90.30;;;;;;5033032;28;20037;-57
2022/11/24 03:54:41;;;;;;;15.38;10.13;;;4.10;90.30;;;;;;5043750;28;20028;-59
2022/11/24 03:57:07;;;;;;;16.40;10.05;;;4.10;90.40;;;;;;5022959;28;20434;-57
2022/11/24 03:59:32;;;;;;;16.02;9.73;;;4.10;90.50;;;;;;5047274;28;20036;-58
2022/11/24 04:01:58;;;;;;;15.98;10.55;;;4.10;90.60;;;;;;5038163;28;20051;-58
2022/11/24 04:04:23;;;;;;;14.73;9.95;;;4.10;90.70;;;;;;5035475;28;20544;-58
2022/11/24 04:06:49;;;;;;;13.25;9.02;;;4.10;90.80;;;;;;5044618;28;20104;-58
2022/11/24 04:09:15;;;;;;;17.20;10.35;;;4.10;90.80;;;;;;5031828;28;20033;-58
2022/11/24 04:14:24;;;;;;;14.95;9.65;;;4.10;90.80;;;;;;5030338;28;20119;-57
2022/11/24 04:16:50;;;;;;;14.15;9.45;;;4.10;90.80;;;;;;5041358;28;20116;-57
2022/11/24 04:19:16;;;;;;;14.10;9.73;;;4.10;90.90;;;;;;5036126;28;20387;-57
2022/11/24 04:21:41;;;;;;;16.98;9.73;;;4.10;91.00;;;;;;5026759;28;20108;-58
2022/11/24 04:24:07;;;;;;;16.67;10.05;;;4.10;90.90;;;;;;5031120;28;20021;-58
2022/11/24 04:26:32;;;;;;;15.57;9.55;;;4.10;91.00;;;;;;5030666;28;20029;-57
2022/11/24 04:28:58;;;;;;;13.43;9.07;;;4.10;91.10;;;;;;5034812;28;20045;-58
2022/11/24 04:31:24;;;;;;;15.00;9.77;;;4.10;91.20;;;;;;5040834;28;20067;-58
2022/11/24 04:33:49;;;;;;;15.18;9.63;;;4.10;91.20;;;;;;5040337;28;20494;-57
2022/11/24 04:36:15;;;;;;;16.98;10.25;;;4.10;91.30;;;;;;5037306;28;20065;-58
2022/11/24 04:38:40;;;;;;;16.15;9.90;;;4.10;91.30;;;;;;5035910;28;20022;-58
2022/11/24 04:41:06;;;;;;;16.13;10.23;;;4.20;91.40;;;;;;5023764;28;20026;-58
2022/11/24 04:43:32;;;;;;;17.10;9.50;;;4.20;91.50;;;;;;5041581;28;20033;-58
2022/11/24 04:46:01;;;;;;;14.30;9.57;;;4.20;91.60;;;;;;5041667;28;20484;-58
2022/11/24 04:48:27;;;;;;;16.20;9.77;;;4.20;91.60;;;;;;5043361;28;20431;-58
2022/11/24 04:50:53;;;;;;;15.90;9.73;;;4.20;91.60;;;;;;5042541;28;20108;-58
2022/11/24 04:53:19;;;;;;;14.77;9.48;;;4.20;91.70;;;;;;5040270;28;20434;-58
2022/11/24 04:55:45;;;;;;;16.33;10.27;;;4.20;91.80;;;;;;5045988;28;20045;-58
2022/11/24 04:58:10;;;;;;;16.20;10.18;;;4.20;91.90;;;;;;5040975;28;20032;-56
2022/11/24 05:00:37;;;;;;;16.38;10.07;;;4.30;91.90;;;;;;5025991;28;20023;-58
2022/11/24 05:03:03;;;;;;;15.07;10.30;;;4.30;91.90;;;;;;5028897;28;20068;-57
2022/11/24 05:05:29;;;;;;;15.75;9.63;;;4.30;92.00;;;;;;5023210;28;20021;-58
2022/11/24 05:07:57;;;;;;;17.45;10.80;;;4.30;92.10;;;;;;5044876;28;20035;-58
2022/11/24 05:10:34;;;;;;;17.88;11.52;;;4.30;92.20;;;;;;5047245;28;20044;-58
2022/11/24 05:13:05;;;;;;;16.58;10.65;;;4.30;92.50;;;;;;5033599;28;20061;-58
2022/11/24 05:15:31;;;;;;;17.83;10.15;;;4.40;92.30;;;;;;5025395;28;20025;-58
2022/11/24 05:17:57;;;;;;;14.77;10.40;;;4.40;92.40;;;;;;5039769;28;20504;-58
2022/11/24 05:20:23;;;;;;;17.50;10.55;;;4.40;92.40;;;;;;5030404;28;20033;-58
2022/11/24 05:22:49;;;;;;;16.10;10.50;;;4.40;92.50;;;;;;5034918;28;20021;-58
2022/11/24 05:25:14;;;;;;;15.88;10.23;;;4.40;92.60;;;;;;5032989;28;20052;-57
2022/11/24 05:27:40;;;;;;;18.38;11.18;;;4.40;92.70;;;;;;5039243;28;20479;-57
2022/11/24 05:30:07;;;;;;;15.77;9.68;;;4.50;92.80;;;;;;5050210;28;20029;-58
2022/11/24 05:32:32;;;;;;;14.82;9.98;;;4.50;92.90;;;;;;5027013;28;20030;-58
2022/11/24 05:35:00;;;;;;;17.88;11.23;;;4.50;93.00;;;;;;5024180;28;20029;-58
2022/11/24 05:37:27;;;;;;;17.23;11.32;;;4.50;93.00;;;;;;5040700;28;20443;-57
2022/11/24 05:39:53;;;;;;;17.50;10.80;;;4.60;93.10;;;;;;5025327;28;20025;-58
2022/11/24 05:45:04;;;;;;;17.52;10.60;;;4.60;93.20;;;;;;5038495;28;20044;-58
2022/11/24 05:47:30;;;;;;;17.05;10.95;;;4.60;93.30;;;;;;5048306;28;20036;-58
2022/11/24 05:49:56;;;;;;;17.98;11.20;;;4.60;93.40;;;;;;5044714;28;20033;-58
2022/11/24 05:52:22;;;;;;;18.63;11.60;;;4.60;93.40;;;;;;5038218;28;20446;-58
2022/11/24 05:54:48;;;;;;;18.08;11.13;;;4.70;93.50;;;;;;5034865;28;20091;-58
2022/11/24 05:57:15;;;;;;;15.05;11.35;;;4.70;93.60;;;;;;5047757;28;20053;-58
2022/11/24 05:59:41;;;;;;;20.77;11.73;;;4.70;93.70;;;;;;5032952;28;20029;-57
2022/11/24 06:02:07;;;;;;;17.45;11.05;;;4.70;93.70;;;;;;5037166;28;20033;-58
2022/11/24 06:04:32;;;;;;;18.95;11.73;;;4.80;93.80;;;;;;5037950;28;20033;-58
2022/11/24 06:06:58;;;;;;;17.92;11.60;;;4.80;93.90;;;;;;5042164;28;20041;-57
2022/11/24 06:09:23;;;;;;;15.50;10.90;;;4.80;93.90;;;;;;5033103;28;20045;-57
2022/11/24 06:11:49;;;;;;;18.80;11.88;;;4.80;93.90;;;;;;5032075;28;20032;-58
2022/11/24 06:14:15;;;;;;;18.50;10.65;;;4.90;94.00;;;;;;5039273;28;20170;-58
2022/11/24 06:16:40;;;;;;;18.55;11.68;;;4.90;94.00;;;;;;5035012;28;20080;-57
2022/11/24 06:19:06;;;;;;;21.73;12.30;;;4.90;93.90;;;;;;5030844;28;20376;-58
2022/11/24 06:21:32;;;;;;;16.00;10.32;;;4.90;93.90;;;;;;5024875;28;20670;-58
2022/11/24 06:23:58;;;;;;;17.92;11.15;;;5.00;94.00;;;;;;5043476;28;20451;-57
2022/11/24 06:26:23;;;;;;;16.40;11.10;;;5.00;94.00;;;;;;5038544;28;20029;-57
2022/11/24 06:28:49;;;;;;;16.15;11.27;;;5.00;94.00;;;;;;5033756;28;20034;-58
2022/11/24 06:31:14;;;;;;;18.45;11.50;;;5.10;94.10;;;;;;5029191;28;20079;-57
2022/11/24 06:33:40;;;;;;;18.95;11.43;;;5.10;94.00;;;;;;5029909;28;20037;-57
2022/11/24 06:36:10;;;;;;;16.00;11.25;;;5.10;94.10;;;;;;5028008;28;20030;-57
2022/11/24 06:38:36;;;;;;;16.77;11.10;;;5.10;94.30;;;;;;5022630;28;20022;-58
2022/11/24 06:41:05;;;;;;;18.50;11.00;;;5.10;94.20;;;;;;5022949;28;20033;-57
2022/11/24 06:43:31;;;;;;;18.08;10.93;;;5.20;94.30;;;;;;5027503;28;20109;-58
2022/11/24 06:45:57;;;;;;;18.65;11.93;;;5.20;94.30;;;;;;5026124;28;20083;-58
2022/11/24 06:48:24;;;;;;;17.95;11.38;;;5.20;94.60;;;;;;5020496;28;20037;-58
2022/11/24 06:50:50;;;;;;;16.33;10.70;;;5.20;94.30;;;;;;5027209;28;20040;-57
2022/11/24 06:53:16;;;;;;;16.55;10.43;;;5.30;94.40;;;;;;5029127;28;20022;-57
2022/11/24 06:55:42;;;;;;;16.02;11.15;;;5.30;94.50;;;;;;5036703;28;20033;-57
2022/11/24 06:58:08;;;;;;;17.67;11.38;;;5.30;94.50;;;;;;5023324;28;20124;-58
2022/11/24 07:00:38;;;;;;;18.65;12.05;;;5.30;94.50;;;;;;5025631;28;20426;-57
2022/11/24 07:03:04;;;;;;;18.23;10.95;;;5.30;94.50;;;;;;5023746;28;20026;-57
2022/11/24 07:05:30;;;;;;;17.75;11.43;;;5.40;94.60;;;;;;5025738;28;20476;-57
2022/11/24 07:07:59;;;;;;;18.40;11.55;;;5.40;94.60;;;;;;5021193;28;20022;-57
2022/11/24 07:10:25;;;;;;;17.23;11.65;;;5.40;94.70;;;;;;5022137;28;20109;-58
2022/11/24 07:12:54;;;;;;;16.83;11.10;;;5.40;94.80;;;;;;5023547;28;20143;-57
2022/11/24 07:15:23;;;;;;;18.08;11.73;;;5.40;94.70;;;;;;5032329;28;20044;-58
2022/11/24 07:17:49;;;;;;;16.30;9.95;;;5.40;94.80;;;;;;5020344;28;20029;-58
2022/11/24 07:20:15;;;;;;;17.40;11.32;;;5.50;94.90;;;;;;5016121;28;20021;-58
2022/11/24 07:22:40;;;;;;;15.70;10.80;;;5.50;94.90;;;;;;5024976;28;20056;-57
2022/11/24 07:25:08;;;;;;;16.38;10.20;;;5.50;94.90;;;;;;5026999;28;20021;-56
2022/11/24 07:27:34;;;;;;;17.50;10.60;;;5.50;94.90;;;;;;5015823;28;20045;-57
2022/11/24 07:30:01;;;;;;;16.33;10.55;;;5.50;94.90;;;;;;5012992;28;20072;-56
2022/11/24 07:32:27;;;;;;;16.33;10.73;;;5.60;95.10;;;;;;5017754;28;20033;-57
2022/11/24 07:34:53;;;;;;;17.35;11.35;;;5.50;95.00;;;;;;5015494;28;20033;-57
2022/11/24 07:37:19;;;;;;;17.38;11.52;;;5.60;95.10;;;;;;5004676;28;20075;-57
2022/11/24 07:39:45;;;;;;;17.67;10.68;;;5.60;95.10;;;;;;5013813;28;20346;-58
2022/11/24 07:42:16;;;;;;;17.52;10.93;;;5.60;95.20;;;;;;5005905;28;20029;-58
2022/11/24 07:44:45;;;;;;;15.60;10.77;;;5.60;95.20;;;;;;5013225;28;20057;-58
2022/11/24 07:47:13;;;;;;;15.00;9.70;;;5.70;95.30;;;;;;5019685;28;20030;-58
2022/11/24 07:49:39;;;;;;;15.35;9.90;;;5.70;95.20;;;;;;5018561;28;20058;-57
2022/11/24 07:52:07;;;;;;;14.35;9.65;;;5.70;95.30;;;;;;5013320;28;20036;-58
2022/11/24 07:54:40;;;;;;;15.90;10.60;;;5.70;95.30;;;;;;5005178;28;20049;-57
2022/11/24 07:57:06;;;;;;;14.75;9.88;;;5.80;95.30;;;;;;5009848;28;20049;-59
2022/11/24 07:59:47;;;;;;;15.90;11.30;;;5.80;95.20;;;;;;5011554;28;20508;-58
2022/11/24 08:02:16;;;;;;;15.45;9.85;;;5.80;95.00;;;;;;5005855;28;20038;-58
2022/11/24 08:04:42;;;;;;;15.23;10.68;;;5.90;95.00;;;;;;5005118;28;20043;-59
2022/11/24 08:07:10;;;;;;;18.45;10.93;;;5.90;95.00;;;;;;5019380;28;20491;-58
2022/11/24 08:09:36;;;;;;;16.23;10.40;;;5.90;94.90;;;;;;5010258;28;20048;-58
2022/11/24 08:12:09;;;;;;;14.45;10.32;;;5.90;94.90;;;;;;5010793;28;20026;-58
2022/11/24 08:14:35;;;;;;;15.25;9.95;;;5.90;94.80;;;;;;5006787;28;20556;-58
2022/11/24 08:17:01;;;;;;;14.95;9.05;;;5.90;94.80;;;;;;5007625;28;20033;-58
2022/11/24 08:19:27;;;;;;;11.55;8.32;;;5.90;94.80;;;;;;5010180;28;20033;-59
2022/11/24 08:21:55;;;;;;;15.00;9.75;;;5.90;94.90;;;;;;5005556;28;20068;-59
2022/11/24 08:24:21;;;;;;;13.57;9.32;;;6.00;94.90;;;;;;5018280;28;20034;-58
2022/11/24 08:26:47;;;;;;;15.20;9.82;;;6.00;94.90;;;;;;5002403;28;20069;-58
2022/11/24 08:29:15;;;;;;;14.07;9.48;;;6.00;94.80;;;;;;5014949;28;20033;-58
2022/11/24 08:31:44;;;;;;;15.77;10.15;;;6.00;94.70;;;;;;5002460;28;20044;-58
2022/11/24 08:34:13;;;;;;;15.00;9.88;;;6.00;94.80;;;;;;5002590;28;20171;-57
2022/11/24 08:36:41;;;;;;;15.60;11.13;;;6.00;94.70;;;;;;5012257;28;20477;-58
2022/11/24 08:39:12;;;;;;;15.80;10.98;;;6.00;95.00;;;;;;5016182;28;20069;-58
2022/11/24 08:41:37;;;;;;;15.57;10.23;;;6.00;94.80;;;;;;5002991;28;20713;-59
2022/11/24 08:44:03;;;;;;;16.40;10.73;;;6.00;94.70;;;;;;5001394;28;20029;-57
2022/11/24 08:46:29;;;;;;;16.90;10.45;;;6.10;94.80;;;;;;5005482;28;20041;-59
2022/11/24 08:48:55;;;;;;;14.48;9.85;;;6.00;94.60;;;;;;4999901;28;20134;-60
2022/11/24 08:51:23;;;;;;;15.18;10.27;;;6.00;94.80;;;;;;5001705;28;20152;-59
2022/11/24 08:53:57;;;;;;;16.05;9.90;;;6.00;94.80;;;;;;5007844;28;20033;-58
2022/11/24 08:56:23;;;;;;;16.70;11.05;;;6.00;94.80;;;;;;4991788;28;20053;-58
2022/11/24 08:58:49;;;;;;;17.00;10.35;;;6.00;94.80;;;;;;4995252;28;20029;-59
2022/11/24 09:01:16;;;;;;;17.77;10.20;;;6.00;94.90;;;;;;5004257;28;20034;-57
2022/11/24 09:03:43;;;;;;;15.48;9.70;;;6.10;94.90;;;;;;5009951;28;20029;-57
2022/11/24 09:06:09;;;;;;;15.30;10.02;;;6.10;94.90;;;;;;5009562;28;20037;-59
2022/11/24 09:08:44;;;;;;;15.13;9.38;;;6.00;94.90;;;;;;5002080;28;20525;-59
2022/11/24 09:11:13;;;;;;;13.50;9.52;;;6.00;94.80;;;;;;5005787;28;20552;-58
2022/11/24 09:13:43;;;;;;;13.93;9.68;;;6.10;94.90;;;;;;5012463;28;20133;-56
2022/11/24 09:16:14;;;;;;;15.70;10.40;;;6.10;95.00;;;;;;5009912;28;20215;-58
2022/11/24 09:18:43;;;;;;;17.45;11.05;;;6.10;95.00;;;;;;5010710;28;20048;-57
2022/11/24 09:21:12;;;;;;;13.13;9.40;;;6.10;94.90;;;;;;5009753;28;20045;-57
2022/11/24 09:23:48;;;;;;;17.73;10.15;;;6.10;95.00;;;;;;5010668;28;20045;-58
2022/11/24 09:26:19;;;;;;;13.25;9.25;;;6.10;94.90;;;;;;5010031;28;20075;-58
2022/11/24 09:28:49;;;;;;;;;;;6.10;95.00;;;;;;5011840;28;21814;-59
2022/11/24 09:31:18;;;;;;;14.48;9.70;;;6.10;94.80;;;;;;5008946;28;19913;-58
2022/11/24 09:33:46;;;;;;;14.43;9.70;;;6.10;94.90;;;;;;5013237;28;20507;-58
2022/11/24 09:36:15;;;;;;;16.83;10.70;;;6.10;94.80;;;;;;5011387;28;20033;-58
2022/11/24 09:38:41;;;;;;;14.88;9.52;;;6.10;94.90;;;;;;5008746;28;20026;-59
2022/11/24 09:41:39;;;;;;;14.13;9.82;;;6.20;95.00;;;;;;5001082;28;20083;-58
2022/11/24 09:44:29;;;;;;;17.55;10.32;;;6.10;94.80;;;;;;4998426;28;20659;-58
2022/11/24 09:47:11;;;;;;;15.80;10.30;;;6.20;95.10;;;;;;5007543;28;20482;-58
2022/11/24 09:49:43;;;;;;;;;;;6.20;95.00;;;;;;5000042;28;20044;-60
2022/11/24 09:52:13;;;;;;;14.05;9.25;;;6.20;94.90;;;;;;5010892;28;20447;-58
2022/11/24 09:54:50;;;;;;;15.23;10.32;;;6.20;95.00;;;;;;5010646;28;20480;-58
2022/11/24 09:57:18;;;;;;;13.73;9.45;;;6.20;95.00;;;;;;4999623;28;20045;-59
2022/11/24 09:59:44;;;;;;;15.45;10.30;;;6.30;95.10;;;;;;5008596;28;20025;-56
2022/11/24 10:02:12;;;;;;;14.63;9.02;;;6.30;95.20;;;;;;5008992;28;20056;-59
2022/11/24 10:04:43;;;;;;;14.52;9.55;;;6.30;95.10;;;;;;5000662;28;20024;-58
2022/11/24 10:07:26;;;;;;;16.33;10.35;;;6.30;95.00;;;;;;5013213;28;20037;-58
2022/11/24 10:10:17;;;;;;;14.63;9.93;;;6.40;94.90;;;;;;5008612;28;20056;-60
2022/11/24 10:13:00;;;;;;;15.02;9.93;;;6.40;94.70;;;;;;5012018;28;20053;-58
2022/11/24 10:15:54;;;;;;;15.68;9.93;;;6.40;94.80;;;;;;5005144;28;20033;-59
2022/11/24 10:18:31;;;;;;;15.18;10.32;;;6.40;94.60;;;;;;4993663;28;20038;-58
2022/11/24 10:21:29;;;;;;;13.70;9.27;;;6.40;94.90;;;;;;5001085;28;20094;-58
2022/11/24 10:24:19;;;;;;;13.05;9.10;;;6.40;94.90;;;;;;4987916;28;20710;-59
2022/11/24 10:26:54;;;;;;;13.52;9.02;;;6.40;94.60;;;;;;4991299;28;20696;-60
2022/11/24 10:29:29;;;;;;;16.35;9.88;;;6.40;94.90;;;;;;4990233;28;20557;-61
2022/11/24 10:31:56;;;;;;;16.33;10.07;;;6.40;94.80;;;;;;4993479;28;20037;-59
2022/11/24 10:34:28;;;;;;;15.63;10.20;;;6.40;94.90;;;;;;4991003;28;21801;-58
2022/11/24 10:37:21;;;;;;;16.27;10.75;;;6.40;94.80;;;;;;5007735;28;20199;-57
2022/11/24 10:39:53;;;;;;;14.35;10.32;;;6.40;94.70;;;;;;4989778;28;20030;-60
2022/11/24 10:42:29;;;;;;;;;;;6.40;94.80;;;;;;4991021;28;20140;-57
2022/11/24 10:44:59;;;;;;;13.45;8.85;;;6.40;94.60;;;;;;4997013;28;19928;-57
2022/11/24 10:47:25;;;;;;;16.35;9.55;;;6.40;94.80;;;;;;5007771;28;20066;-58
2022/11/24 10:50:21;;;;;;;13.35;9.13;;;6.50;94.90;;;;;;4999735;28;20034;-58
2022/11/24 10:53:10;;;;;;;15.02;9.60;;;6.50;94.50;;;;;;4996475;28;20030;-58
2022/11/24 10:55:56;;;;;;;16.48;10.70;;;6.50;94.40;;;;;;4998284;28;20049;-59
2022/11/24 10:58:23;;;;;;;13.98;9.07;;;6.50;94.30;;;;;;4991772;28;20037;-58
2022/11/24 11:00:49;;;;;;;14.82;9.50;;;6.40;94.60;;;;;;4995479;28;20033;-59
2022/11/24 11:03:23;;;;;;;13.80;9.13;;;6.50;94.50;;;;;;4999344;28;20315;-58
2022/11/24 11:06:12;;;;;;;18.25;11.07;;;6.50;94.50;;;;;;5005414;28;20413;-59
2022/11/24 11:08:38;;;;;;;18.10;11.35;;;6.40;94.30;;;;;;5001953;28;20032;-58
2022/11/24 11:11:21;;;;;;;17.33;10.55;;;6.40;94.30;;;;;;5000141;28;20078;-59
2022/11/24 11:14:11;;;;;;;17.67;10.68;;;6.40;94.40;;;;;;5001428;28;20029;-57
2022/11/24 11:16:41;;;;;;;16.10;11.02;;;6.40;94.20;;;;;;5002642;28;20050;-57
2022/11/24 11:19:31;;;;;;;15.63;10.27;;;6.30;94.40;;;;;;5011654;28;20520;-59
2022/11/24 11:22:13;;;;;;;15.10;9.85;;;6.30;94.40;;;;;;4996414;28;20075;-61
2022/11/24 11:24:42;;;;;;;16.35;10.23;;;6.30;94.60;;;;;;5000557;28;20079;-58
2022/11/24 11:27:20;;;;;;;15.68;10.10;;;6.30;94.80;;;;;;4981751;28;23583;-58
2022/11/24 11:29:47;;;;;;;16.38;10.52;;;6.40;94.60;;;;;;5006059;28;20041;-57
2022/11/24 11:32:23;;;;;;;14.45;9.05;;;6.40;94.70;;;;;;4997868;28;20040;-58
2022/11/24 11:34:50;;;;;;;16.42;11.05;;;6.40;94.80;;;;;;4994925;28;20218;-57
2022/11/24 11:37:18;;;;;;;16.95;10.93;;;6.40;94.70;;;;;;4998936;28;20047;-58
2022/11/24 11:39:49;;;;;;;16.25;10.57;;;6.40;94.80;;;;;;5006714;28;20021;-59
2022/11/24 11:42:24;;;;;;;17.00;10.60;;;6.40;94.70;;;;;;5001743;28;20033;-58
2022/11/24 11:45:04;;;;;;;15.45;10.65;;;6.40;94.80;;;;;;4999401;28;20025;-58
2022/11/24 11:47:43;;;;;;;17.95;10.80;;;6.40;94.80;;;;;;4999760;28;20376;-62
2022/11/24 11:50:14;;;;;;;18.27;11.48;;;6.40;94.80;;;;;;4997915;28;20510;-60
2022/11/24 11:52:58;;;;;;;17.00;10.77;;;6.40;94.80;;;;;;4999326;28;20107;-60
2022/11/24 11:55:54;;;;;;;16.55;10.73;;;6.30;94.90;;;;;;5002950;28;20033;-61
2022/11/24 11:58:57;;;;;;;14.65;10.05;;;6.40;95.00;;;;;;5004457;28;20124;-61
2022/11/24 12:01:37;;;;;;;16.08;10.35;;;6.40;94.80;;;;;;5001519;28;20132;-59
2022/11/24 12:04:32;;;;;;;17.00;10.70;;;6.40;95.10;;;;;;4991376;28;20029;-60
2022/11/24 12:07:06;;;;;;;15.70;10.63;;;6.40;95.00;;;;;;4997285;28;20030;-58
2022/11/24 12:09:54;;;;;;;16.77;10.80;;;6.50;95.00;;;;;;4987664;28;20041;-60
2022/11/24 12:20:13;;;;;;;16.45;9.65;;;6.40;94.10;;;;;;4957772;28;20412;-57
2022/11/24 12:22:49;;;;;;;16.85;10.05;;;6.40;94.10;;;;;;4950606;28;20053;-59
2022/11/24 12:25:24;;;;;;;15.60;9.80;;;6.40;94.40;;;;;;4952219;28;20029;-57
2022/11/24 12:28:25;;;;;;;15.25;10.10;;;6.40;94.60;;;;;;4946910;28;20039;-58
2022/11/24 12:31:28;;;;;;;15.35;9.13;;;6.40;94.80;;;;;;4942169;28;21802;-56
2022/11/24 12:33:59;;;;;;;12.77;9.00;;;6.50;94.90;;;;;;4955527;28;20026;-60
2022/11/24 12:36:49;;;;;;;13.80;9.10;;;6.50;95.20;;;;;;4966866;28;20075;-59
2022/11/24 12:39:44;;;;;;;12.32;8.90;;;6.50;95.30;;;;;;4960730;28;20455;-59
2022/11/24 12:42:31;;;;;;;13.82;9.65;;;6.60;94.80;;;;;;4958157;28;20034;-59
2022/11/24 12:44:56;;;;;;;15.90;10.32;;;6.50;95.00;;;;;;4960140;28;20428;-57
2022/11/24 12:47:41;;;;;;;16.05;9.95;;;6.50;95.00;;;;;;4965740;28;20022;-57
2022/11/24 12:50:13;;;;;;;13.35;8.20;;;6.50;95.00;;;;;;4959090;28;20030;-60
2022/11/24 12:52:46;;;;;;;13.43;8.60;;;6.50;95.10;;;;;;4958649;28;20458;-58
2022/11/24 12:55:16;;;;;;;17.88;9.30;;;6.50;95.30;;;;;;4959707;28;20065;-57
2022/11/24 12:58:01;;;;;;;14.90;8.95;;;6.50;95.30;;;;;;4957477;28;20065;-59
2022/11/24 13:00:51;;;;;;;12.95;9.32;;;6.60;95.10;;;;;;4958016;28;20948;-57
2022/11/24 13:03:31;;;;;;;15.52;9.32;;;6.60;95.40;;;;;;4962486;28;20075;-59
2022/11/24 13:06:21;;;;;;;13.20;8.88;;;6.60;95.50;;;;;;4959732;28;20513;-58
2022/11/24 13:08:47;;;;;;;14.48;9.48;;;6.60;95.30;;;;;;4951121;28;20141;-57
2022/11/24 13:11:22;;;;;;;11.63;8.23;;;6.70;95.40;;;;;;4959650;28;20125;-58